VTBDVTSB

Guest
Details From VTBD - Bangkok Don Mueang Intl
To VTSB - Surat Thani
Flight Number -
Tags decoded
Created
Modified
Stats Distance 300 nm / 555 km
Max Altitude 0 ft / 0 m
Waypoints 2
Social Downloads 0
Likes 0
Share VATSIM

Download

Looking for another format? Having issues loading an existing format? Contact us
Advertisement - Login to hide

Notes

Requested: VTBD VTSB

Route

VTBD VTSB

ID Type Via Altitude Latitude Longitude Leg Dist Tot Dist Heading (true) Name
O VTBD APT - 0 ft / 0 m 13.91260˚ 100.60680˚ - 0 nm - Bangkok Don Mueang Intl
O VTSB APT - 0 ft / 0 m 9.13260˚ 99.13559˚ 299 nm 299 nm 197° / 197° Surat Thani

Altitude Profile

Advertisement - Login to hide

Weather


0- 5 10 15 20 25 30 35+ Temperature / ° C

Clouds and Precipitation
Forecast for 2018-05-26 06:00 UTC. Updated 5 hours ago

Ground ~20,000 ft ~40,000 ft Winds

VTBD

Details ICAO VTBD (DMK)
Name Bangkok Don Mueang Intl
Region Thailand
Timezone Asia/Bangkok (UTC+7.0)
Stats Elevation 9 ft / 3 m (AMSL)
Location 13.912597° 100.606799°
Runways 2
Magnetic Variation 0.579° W

METAR

VTBD 261030Z 16006KT 110V210 9999 FEW020CB SCT035 30/26 Q1007 NOSIG

Decode

TAF

TAF VTBD 260500Z 2606/2712 20005KT 9999 SCT025 TEMPO 2607/2612 VRB10KT 5000 TSRA FEW018CB SCT030 BKN100 BECMG 2620/2622 VRB03KT BECMG 2703/2705 20008KT TEMPO 2703/2710 VRB10KT 5000 TSRA FEW018CB SCT030 BKN100

Decode

Departure Runways

ID Width Length Bearing (true) Bearing (mag) Surface Threshold Offset Overrun Length
03L 197 ft / 60 m 12,186 ft / 3,714 m 28.55° 29.13° Asphalt 0 ft / 0 m 492 ft / 150 m
03R 148 ft / 45 m 11,520 ft / 3,511 m 28.50° 29.08° Asphalt 0 ft / 0 m 348 ft / 106 m
21L 148 ft / 45 m 11,520 ft / 3,511 m 208.50° 209.08° Asphalt 1,145 ft / 349 m 180 ft / 55 m
21R 197 ft / 60 m 12,186 ft / 3,714 m 208.55° 209.13° Asphalt 0 ft / 0 m 492 ft / 150 m

VTSB

Details ICAO VTSB (URT)
Name Surat Thani
Region Thailand
Timezone Asia/Bangkok (UTC+7.0)
Stats Elevation 20 ft / 6 m (AMSL)
Location 9.132603° 99.135586°
Runways 1
Magnetic Variation 0.403° W

METAR

VTSB 261000Z 13003KT 9999 SCT020 30/26 Q1007

Decode

TAF

TAF VTSB 260500Z 2606/2706 22008KT 9999 FEW020 TEMPO 2606/2612 VRB10G20KT 6000 -TSRA FEW016CB SCT018 BKN100 BECMG 2620/2622 5000 BR BECMG 2702/2704 9999 NSW

Decode

Destination Runways

ID Width Length Bearing (true) Bearing (mag) Surface Threshold Offset Overrun Length
04 148 ft / 45 m 9,912 ft / 3,021 m 43.98° 44.38° Asphalt 0 ft / 0 m 250 ft / 76 m
22 148 ft / 45 m 9,912 ft / 3,021 m 223.99° 224.39° Asphalt 0 ft / 0 m 230 ft / 70 m

Approach Navaids

Runway Type Ident Frequency Range Bearing (true) Bearing (mag) Slope Elevation
22 Localiser ISTN 109.50 MHz 18 nm / 33 km 223.99° 224.39° - 20 ft / 6 m (AMSL)
22 Glidescope ISTN 109.50 MHz 10 nm / 19 km 223.99° 224.39° 3.00° 18 ft / 5 m (AMSL)
22 DME ISTN 109.50 MHz 18 nm / 33 km - - - 20 ft / 6 m (AMSL)

Popular Alternatives